Bostic Yard, North Carolina
Current Conditions -  °F | °C
As of 11:55 PM on Thursday 30 Oct 2014 (Local Time) from KFQD Reporting Station
Clear Clear  
Wind Chill: 43°   Ceiling: Unl
Heat Index: 43°   Visibility: 10mi
Dew Point: 40°   Wind: 0mph
Humidity: 88%   Direction: NA
Pressure: 29.99"   Gusts: NA
Location:  35.4977°N, 81.7958°W
Report Text: KFQD 310355Z AUTO 00000KT 10SM CLR 06/04 A2999 RMK AO2 T00620043
Loading
Personal Weather Stations






























Interactive Weather Map
Tropical Storm Tracking
New forecast layout! Learn more

10-Day Weather Forecast

Advertisements
Track Severe Weather on mobile